sensor_id;sensor_type;location;lat;lon;timestamp;temperature;humidity
65582;DHT22;52231;40.090;18.348;2024-01-11T00:01:55;7.50;88.50
65582;DHT22;52231;40.090;18.348;2024-01-11T00:04:24;7.50;88.50
65582;DHT22;52231;40.090;18.348;2024-01-11T00:06:52;7.50;88.40
65582;DHT22;52231;40.090;18.348;2024-01-11T00:09:20;7.60;88.40
65582;DHT22;52231;40.090;18.348;2024-01-11T00:11:48;7.50;88.40
65582;DHT22;52231;40.090;18.348;2024-01-11T00:14:17;7.50;88.40
65582;DHT22;52231;40.090;18.348;2024-01-11T00:16:45;7.50;88.30
65582;DHT22;52231;40.090;18.348;2024-01-11T00:19:13;7.40;88.20
65582;DHT22;52231;40.090;18.348;2024-01-11T00:21:41;7.40;88.20
65582;DHT22;52231;40.090;18.348;2024-01-11T00:24:09;7.40;88.20
65582;DHT22;52231;40.090;18.348;2024-01-11T00:26:37;7.40;88.30
65582;DHT22;52231;40.090;18.348;2024-01-11T00:29:05;7.40;88.30
65582;DHT22;52231;40.090;18.348;2024-01-11T00:31:34;7.50;88.30
65582;DHT22;52231;40.090;18.348;2024-01-11T00:34:03;7.40;88.30
65582;DHT22;52231;40.090;18.348;2024-01-11T00:36:31;7.30;88.20
65582;DHT22;52231;40.090;18.348;2024-01-11T00:39:00;7.40;88.30
65582;DHT22;52231;40.090;18.348;2024-01-11T00:41:29;7.40;88.30
65582;DHT22;52231;40.090;18.348;2024-01-11T00:43:57;7.40;88.30
65582;DHT22;52231;40.090;18.348;2024-01-11T00:46:25;7.30;88.30
65582;DHT22;52231;40.090;18.348;2024-01-11T00:48:53;7.30;88.40
65582;DHT22;52231;40.090;18.348;2024-01-11T00:51:22;7.30;88.40
65582;DHT22;52231;40.090;18.348;2024-01-11T00:53:50;7.20;88.40
65582;DHT22;52231;40.090;18.348;2024-01-11T00:56:19;7.00;88.40
65582;DHT22;52231;40.090;18.348;2024-01-11T00:58:47;7.00;88.40
65582;DHT22;52231;40.090;18.348;2024-01-11T01:01:15;7.10;88.50
65582;DHT22;52231;40.090;18.348;2024-01-11T01:03:43;6.90;88.50
65582;DHT22;52231;40.090;18.348;2024-01-11T01:06:11;6.90;88.60
65582;DHT22;52231;40.090;18.348;2024-01-11T01:08:40;6.90;88.80
65582;DHT22;52231;40.090;18.348;2024-01-11T01:11:07;6.80;88.80
65582;DHT22;52231;40.090;18.348;2024-01-11T01:13:35;6.80;88.90
65582;DHT22;52231;40.090;18.348;2024-01-11T01:16:04;6.70;89.00
65582;DHT22;52231;40.090;18.348;2024-01-11T01:18:32;6.70;89.10
65582;DHT22;52231;40.090;18.348;2024-01-11T01:21:00;6.70;89.20
65582;DHT22;52231;40.090;18.348;2024-01-11T01:23:28;6.60;89.20
65582;DHT22;52231;40.090;18.348;2024-01-11T01:25:56;6.60;89.30
65582;DHT22;52231;40.090;18.348;2024-01-11T01:28:24;6.50;89.30
65582;DHT22;52231;40.090;18.348;2024-01-11T01:30:52;6.60;89.40
65582;DHT22;52231;40.090;18.348;2024-01-11T01:33:22;6.50;89.50
65582;DHT22;52231;40.090;18.348;2024-01-11T01:35:50;6.50;89.60
65582;DHT22;52231;40.090;18.348;2024-01-11T01:38:18;6.50;89.60
65582;DHT22;52231;40.090;18.348;2024-01-11T01:40:46;6.50;89.70
65582;DHT22;52231;40.090;18.348;2024-01-11T01:43:14;6.50;89.80
65582;DHT22;52231;40.090;18.348;2024-01-11T01:45:42;6.40;89.80
65582;DHT22;52231;40.090;18.348;2024-01-11T01:48:10;6.50;89.90
65582;DHT22;52231;40.090;18.348;2024-01-11T01:50:38;6.50;89.90
65582;DHT22;52231;40.090;18.348;2024-01-11T01:53:07;6.50;89.90
65582;DHT22;52231;40.090;18.348;2024-01-11T01:55:35;6.40;90.00
65582;DHT22;52231;40.090;18.348;2024-01-11T01:58:03;6.40;90.00
65582;DHT22;52231;40.090;18.348;2024-01-11T02:00:32;6.30;90.00
65582;DHT22;52231;40.090;18.348;2024-01-11T02:03:00;6.30;90.00
65582;DHT22;52231;40.090;18.348;2024-01-11T02:05:29;6.30;90.10
65582;DHT22;52231;40.090;18.348;2024-01-11T02:07:57;6.40;90.20
65582;DHT22;52231;40.090;18.348;2024-01-11T02:10:27;6.40;90.10
65582;DHT22;52231;40.090;18.348;2024-01-11T02:12:55;6.30;90.10
65582;DHT22;52231;40.090;18.348;2024-01-11T02:15:23;6.40;90.20
65582;DHT22;52231;40.090;18.348;2024-01-11T02:17:51;6.40;90.20
65582;DHT22;52231;40.090;18.348;2024-01-11T02:20:19;6.30;90.20
65582;DHT22;52231;40.090;18.348;2024-01-11T02:22:53;6.30;90.30
65582;DHT22;52231;40.090;18.348;2024-01-11T02:25:23;6.30;90.30
65582;DHT22;52231;40.090;18.348;2024-01-11T02:27:51;6.30;90.30
65582;DHT22;52231;40.090;18.348;2024-01-11T02:30:19;6.20;90.30
65582;DHT22;52231;40.090;18.348;2024-01-11T02:32:48;6.20;90.30
65582;DHT22;52231;40.090;18.348;2024-01-11T02:35:17;6.20;90.30
65582;DHT22;52231;40.090;18.348;2024-01-11T02:37:46;6.20;90.30
65582;DHT22;52231;40.090;18.348;2024-01-11T02:40:15;6.10;90.30
65582;DHT22;52231;40.090;18.348;2024-01-11T02:42:43;6.10;90.30
65582;DHT22;52231;40.090;18.348;2024-01-11T02:45:12;6.00;90.30
65582;DHT22;52231;40.090;18.348;2024-01-11T02:47:40;6.00;90.30
65582;DHT22;52231;40.090;18.348;2024-01-11T02:50:09;6.00;90.40
65582;DHT22;52231;40.090;18.348;2024-01-11T02:52:37;5.80;90.30
65582;DHT22;52231;40.090;18.348;2024-01-11T02:55:06;5.80;90.30
65582;DHT22;52231;40.090;18.348;2024-01-11T02:57:34;5.80;90.40
65582;DHT22;52231;40.090;18.348;2024-01-11T03:00:03;5.80;90.40
65582;DHT22;52231;40.090;18.348;2024-01-11T03:02:31;5.70;90.40
65582;DHT22;52231;40.090;18.348;2024-01-11T03:04:59;5.60;90.50
65582;DHT22;52231;40.090;18.348;2024-01-11T03:07:27;5.70;90.60
65582;DHT22;52231;40.090;18.348;2024-01-11T03:09:57;5.70;90.60
65582;DHT22;52231;40.090;18.348;2024-01-11T03:12:25;5.60;90.70
65582;DHT22;52231;40.090;18.348;2024-01-11T03:14:54;5.50;90.60
65582;DHT22;52231;40.090;18.348;2024-01-11T03:17:22;5.50;90.70
65582;DHT22;52231;40.090;18.348;2024-01-11T03:19:49;5.60;90.80
65582;DHT22;52231;40.090;18.348;2024-01-11T03:22:17;5.60;90.80
65582;DHT22;52231;40.090;18.348;2024-01-11T03:24:45;5.60;90.90
65582;DHT22;52231;40.090;18.348;2024-01-11T03:27:13;5.60;90.90
65582;DHT22;52231;40.090;18.348;2024-01-11T03:29:41;5.60;91.00
65582;DHT22;52231;40.090;18.348;2024-01-11T03:32:09;5.60;91.00
65582;DHT22;52231;40.090;18.348;2024-01-11T03:34:40;5.70;91.10
65582;DHT22;52231;40.090;18.348;2024-01-11T03:37:08;5.70;91.10
65582;DHT22;52231;40.090;18.348;2024-01-11T03:39:37;5.70;91.20
65582;DHT22;52231;40.090;18.348;2024-01-11T03:42:05;5.80;91.20
65582;DHT22;52231;40.090;18.348;2024-01-11T03:44:35;5.70;91.20
65582;DHT22;52231;40.090;18.348;2024-01-11T03:47:04;5.70;91.20
65582;DHT22;52231;40.090;18.348;2024-01-11T03:49:32;5.70;91.20
65582;DHT22;52231;40.090;18.348;2024-01-11T03:52:00;5.70;91.30
65582;DHT22;52231;40.090;18.348;2024-01-11T03:54:28;5.70;91.30
65582;DHT22;52231;40.090;18.348;2024-01-11T03:56:56;5.80;91.30
65582;DHT22;52231;40.090;18.348;2024-01-11T03:59:24;5.70;91.30
65582;DHT22;52231;40.090;18.348;2024-01-11T04:01:52;5.70;91.30
65582;DHT22;52231;40.090;18.348;2024-01-11T04:04:21;5.70;91.30
65582;DHT22;52231;40.090;18.348;2024-01-11T04:06:51;5.60;91.30
65582;DHT22;52231;40.090;18.348;2024-01-11T04:09:20;5.50;91.30
65582;DHT22;52231;40.090;18.348;2024-01-11T04:11:48;5.60;91.30
65582;DHT22;52231;40.090;18.348;2024-01-11T04:14:16;5.60;91.30
65582;DHT22;52231;40.090;18.348;2024-01-11T04:16:44;5.40;91.30
65582;DHT22;52231;40.090;18.348;2024-01-11T04:19:12;5.50;91.30
65582;DHT22;52231;40.090;18.348;2024-01-11T04:21:41;5.40;91.30
65582;DHT22;52231;40.090;18.348;2024-01-11T04:24:09;5.40;91.30
65582;DHT22;52231;40.090;18.348;2024-01-11T04:26:37;5.40;91.40
65582;DHT22;52231;40.090;18.348;2024-01-11T04:29:05;5.40;91.40
65582;DHT22;52231;40.090;18.348;2024-01-11T04:31:33;5.40;91.40
65582;DHT22;52231;40.090;18.348;2024-01-11T04:34:01;5.30;91.40
65582;DHT22;52231;40.090;18.348;2024-01-11T04:36:29;5.30;91.40
65582;DHT22;52231;40.090;18.348;2024-01-11T04:38:57;5.30;91.30
65582;DHT22;52231;40.090;18.348;2024-01-11T04:41:25;5.30;91.40
65582;DHT22;52231;40.090;18.348;2024-01-11T04:43:54;5.20;91.40
65582;DHT22;52231;40.090;18.348;2024-01-11T04:46:22;5.20;91.40
65582;DHT22;52231;40.090;18.348;2024-01-11T04:48:50;5.10;91.40
65582;DHT22;52231;40.090;18.348;2024-01-11T04:51:19;5.10;91.40
65582;DHT22;52231;40.090;18.348;2024-01-11T04:53:48;5.00;91.40
65582;DHT22;52231;40.090;18.348;2024-01-11T04:56:17;4.90;91.40
65582;DHT22;52231;40.090;18.348;2024-01-11T04:58:45;4.90;91.40
65582;DHT22;52231;40.090;18.348;2024-01-11T05:01:15;4.90;91.40
65582;DHT22;52231;40.090;18.348;2024-01-11T05:03:44;4.80;91.40
65582;DHT22;52231;40.090;18.348;2024-01-11T05:06:20;4.90;91.50
65582;DHT22;52231;40.090;18.348;2024-01-11T05:08:50;4.80;91.50
65582;DHT22;52231;40.090;18.348;2024-01-11T05:11:23;4.80;91.50
65582;DHT22;52231;40.090;18.348;2024-01-11T05:13:54;4.80;91.50
65582;DHT22;52231;40.090;18.348;2024-01-11T05:16:27;4.80;91.60
65582;DHT22;52231;40.090;18.348;2024-01-11T05:18:56;4.70;91.50
65582;DHT22;52231;40.090;18.348;2024-01-11T05:21:25;4.70;91.60
65582;DHT22;52231;40.090;18.348;2024-01-11T05:23:53;4.60;91.60
65582;DHT22;52231;40.090;18.348;2024-01-11T05:26:21;4.60;91.60
65582;DHT22;52231;40.090;18.348;2024-01-11T05:28:50;4.60;91.60
65582;DHT22;52231;40.090;18.348;2024-01-11T05:31:18;4.50;91.60
65582;DHT22;52231;40.090;18.348;2024-01-11T05:33:47;4.60;91.70
65582;DHT22;52231;40.090;18.348;2024-01-11T05:36:15;4.50;91.60
65582;DHT22;52231;40.090;18.348;2024-01-11T05:38:45;4.50;91.70
65582;DHT22;52231;40.090;18.348;2024-01-11T05:41:13;4.50;91.70
65582;DHT22;52231;40.090;18.348;2024-01-11T05:43:42;4.50;91.70
65582;DHT22;52231;40.090;18.348;2024-01-11T05:46:10;4.40;91.70
65582;DHT22;52231;40.090;18.348;2024-01-11T05:48:39;4.30;91.70
65582;DHT22;52231;40.090;18.348;2024-01-11T05:51:08;4.30;91.80
65582;DHT22;52231;40.090;18.348;2024-01-11T05:53:37;4.20;91.70
65582;DHT22;52231;40.090;18.348;2024-01-11T05:56:11;4.20;91.80
65582;DHT22;52231;40.090;18.348;2024-01-11T05:58:39;4.20;91.70
65582;DHT22;52231;40.090;18.348;2024-01-11T06:01:08;4.10;91.70
65582;DHT22;52231;40.090;18.348;2024-01-11T06:03:36;4.10;91.70
65582;DHT22;52231;40.090;18.348;2024-01-11T06:06:06;4.10;91.80
65582;DHT22;52231;40.090;18.348;2024-01-11T06:08:35;4.10;91.80
65582;DHT22;52231;40.090;18.348;2024-01-11T06:11:03;4.00;91.80
65582;DHT22;52231;40.090;18.348;2024-01-11T06:13:31;4.00;91.80
65582;DHT22;52231;40.090;18.348;2024-01-11T06:15:59;4.00;91.80
65582;DHT22;52231;40.090;18.348;2024-01-11T06:18:27;4.10;91.80
65582;DHT22;52231;40.090;18.348;2024-01-11T06:20:56;4.20;91.80
65582;DHT22;52231;40.090;18.348;2024-01-11T06:23:24;4.10;91.90
65582;DHT22;52231;40.090;18.348;2024-01-11T06:25:52;4.10;91.90
65582;DHT22;52231;40.090;18.348;2024-01-11T06:28:20;4.10;91.90
65582;DHT22;52231;40.090;18.348;2024-01-11T06:30:48;4.10;91.90
65582;DHT22;52231;40.090;18.348;2024-01-11T06:33:16;4.10;91.90
65582;DHT22;52231;40.090;18.348;2024-01-11T06:35:45;4.20;91.90
65582;DHT22;52231;40.090;18.348;2024-01-11T06:38:15;4.20;91.90
65582;DHT22;52231;40.090;18.348;2024-01-11T06:40:43;4.30;91.90
65582;DHT22;52231;40.090;18.348;2024-01-11T06:43:11;4.30;91.90
65582;DHT22;52231;40.090;18.348;2024-01-11T06:45:40;4.30;91.90
65582;DHT22;52231;40.090;18.348;2024-01-11T06:48:08;4.30;91.90
65582;DHT22;52231;40.090;18.348;2024-01-11T06:50:36;4.30;92.00
65582;DHT22;52231;40.090;18.348;2024-01-11T06:53:04;4.50;92.00
65582;DHT22;52231;40.090;18.348;2024-01-11T06:55:32;4.50;92.00
65582;DHT22;52231;40.090;18.348;2024-01-11T06:58:00;4.70;92.00
65582;DHT22;52231;40.090;18.348;2024-01-11T07:00:29;4.80;92.00
65582;DHT22;52231;40.090;18.348;2024-01-11T07:02:57;4.90;92.00
65582;DHT22;52231;40.090;18.348;2024-01-11T07:05:25;5.20;92.10
65582;DHT22;52231;40.090;18.348;2024-01-11T07:07:53;5.30;92.10
65582;DHT22;52231;40.090;18.348;2024-01-11T07:10:21;5.40;92.10
65582;DHT22;52231;40.090;18.348;2024-01-11T07:12:52;5.60;92.10
65582;DHT22;52231;40.090;18.348;2024-01-11T07:15:20;5.70;92.10
65582;DHT22;52231;40.090;18.348;2024-01-11T07:17:48;5.90;92.20
65582;DHT22;52231;40.090;18.348;2024-01-11T07:20:16;6.00;92.20
65582;DHT22;52231;40.090;18.348;2024-01-11T07:22:46;6.20;92.20
65582;DHT22;52231;40.090;18.348;2024-01-11T07:25:14;6.30;92.10
65582;DHT22;52231;40.090;18.348;2024-01-11T07:27:42;6.60;92.20
65582;DHT22;52231;40.090;18.348;2024-01-11T07:30:11;6.70;92.20
65582;DHT22;52231;40.090;18.348;2024-01-11T07:32:42;7.00;92.20
65582;DHT22;52231;40.090;18.348;2024-01-11T07:35:11;7.20;92.20
65582;DHT22;52231;40.090;18.348;2024-01-11T07:37:40;7.40;92.10
65582;DHT22;52231;40.090;18.348;2024-01-11T07:40:09;7.60;92.10
65582;DHT22;52231;40.090;18.348;2024-01-11T07:42:38;7.80;92.00
65582;DHT22;52231;40.090;18.348;2024-01-11T07:45:07;8.10;92.00
65582;DHT22;52231;40.090;18.348;2024-01-11T07:47:37;8.30;91.90
65582;DHT22;52231;40.090;18.348;2024-01-11T07:50:06;8.50;91.80
65582;DHT22;52231;40.090;18.348;2024-01-11T07:52:34;8.80;91.60
65582;DHT22;52231;40.090;18.348;2024-01-11T07:55:03;8.90;91.40
65582;DHT22;52231;40.090;18.348;2024-01-11T07:57:34;9.10;91.20
65582;DHT22;52231;40.090;18.348;2024-01-11T08:00:06;9.30;90.90
65582;DHT22;52231;40.090;18.348;2024-01-11T08:02:41;9.40;90.50
65582;DHT22;52231;40.090;18.348;2024-01-11T08:05:09;9.70;90.10
65582;DHT22;52231;40.090;18.348;2024-01-11T08:07:37;9.80;89.50
65582;DHT22;52231;40.090;18.348;2024-01-11T08:10:06;9.90;88.80
65582;DHT22;52231;40.090;18.348;2024-01-11T08:12:36;10.10;87.90
65582;DHT22;52231;40.090;18.348;2024-01-11T08:15:05;10.30;86.80
65582;DHT22;52231;40.090;18.348;2024-01-11T08:17:33;10.50;86.00
65582;DHT22;52231;40.090;18.348;2024-01-11T08:20:01;10.60;85.20
65582;DHT22;52231;40.090;18.348;2024-01-11T08:22:31;10.80;84.60
65582;DHT22;52231;40.090;18.348;2024-01-11T08:25:02;11.00;84.20
65582;DHT22;52231;40.090;18.348;2024-01-11T08:27:32;11.10;83.40
65582;DHT22;52231;40.090;18.348;2024-01-11T08:30:01;11.30;83.00
65582;DHT22;52231;40.090;18.348;2024-01-11T08:32:30;11.40;82.30
65582;DHT22;52231;40.090;18.348;2024-01-11T08:34:59;11.40;81.90
65582;DHT22;52231;40.090;18.348;2024-01-11T08:37:27;11.70;81.70
65582;DHT22;52231;40.090;18.348;2024-01-11T08:39:55;11.70;80.90
65582;DHT22;52231;40.090;18.348;2024-01-11T08:42:23;11.70;80.40
65582;DHT22;52231;40.090;18.348;2024-01-11T08:44:51;11.90;80.40
65582;DHT22;52231;40.090;18.348;2024-01-11T08:47:20;12.00;80.20
65582;DHT22;52231;40.090;18.348;2024-01-11T08:49:48;12.10;79.50
65582;DHT22;52231;40.090;18.348;2024-01-11T08:52:16;12.30;79.10
65582;DHT22;52231;40.090;18.348;2024-01-11T08:54:44;12.30;78.80
65582;DHT22;52231;40.090;18.348;2024-01-11T08:57:12;12.30;77.90
65582;DHT22;52231;40.090;18.348;2024-01-11T08:59:40;12.40;77.50
65582;DHT22;52231;40.090;18.348;2024-01-11T09:02:09;12.50;77.10
65582;DHT22;52231;40.090;18.348;2024-01-11T09:04:39;12.50;75.20
65582;DHT22;52231;40.090;18.348;2024-01-11T09:07:07;12.50;74.40
65582;DHT22;52231;40.090;18.348;2024-01-11T09:09:35;12.80;74.90
65582;DHT22;52231;40.090;18.348;2024-01-11T09:12:05;13.00;74.60
65582;DHT22;52231;40.090;18.348;2024-01-11T09:14:34;13.20;73.60
65582;DHT22;52231;40.090;18.348;2024-01-11T09:17:02;13.30;71.40
65582;DHT22;52231;40.090;18.348;2024-01-11T09:19:34;13.50;71.40
65582;DHT22;52231;40.090;18.348;2024-01-11T09:22:02;13.80;69.60
65582;DHT22;52231;40.090;18.348;2024-01-11T09:24:30;13.90;69.10
65582;DHT22;52231;40.090;18.348;2024-01-11T09:27:00;14.10;68.80
65582;DHT22;52231;40.090;18.348;2024-01-11T09:29:28;14.30;68.30
65582;DHT22;52231;40.090;18.348;2024-01-11T09:31:58;14.20;68.10
65582;DHT22;52231;40.090;18.348;2024-01-11T09:34:26;14.10;68.10
65582;DHT22;52231;40.090;18.348;2024-01-11T09:36:54;14.00;67.90
65582;DHT22;52231;40.090;18.348;2024-01-11T09:43:10;14.10;67.70
65582;DHT22;52231;40.090;18.348;2024-01-11T09:48:57;14.00;66.50
65582;DHT22;52231;40.090;18.348;2024-01-11T09:51:46;14.00;66.30
65582;DHT22;52231;40.090;18.348;2024-01-11T09:54:16;13.80;66.20
65582;DHT22;52231;40.090;18.348;2024-01-11T09:57:09;13.90;65.90
65582;DHT22;52231;40.090;18.348;2024-01-11T09:59:37;13.90;65.10
65582;DHT22;52231;40.090;18.348;2024-01-11T10:02:09;14.20;64.70
65582;DHT22;52231;40.090;18.348;2024-01-11T10:04:37;14.30;63.70
65582;DHT22;52231;40.090;18.348;2024-01-11T10:07:06;14.50;63.80
65582;DHT22;52231;40.090;18.348;2024-01-11T10:09:34;14.60;62.00
65582;DHT22;52231;40.090;18.348;2024-01-11T10:12:03;14.60;62.10
65582;DHT22;52231;40.090;18.348;2024-01-11T10:14:32;14.60;61.50
65582;DHT22;52231;40.090;18.348;2024-01-11T10:17:01;14.80;61.90
65582;DHT22;52231;40.090;18.348;2024-01-11T10:19:30;15.00;60.80
65582;DHT22;52231;40.090;18.348;2024-01-11T10:21:59;15.10;59.50
65582;DHT22;52231;40.090;18.348;2024-01-11T10:24:27;15.00;59.20
65582;DHT22;52231;40.090;18.348;2024-01-11T10:26:57;14.90;59.20
65582;DHT22;52231;40.090;18.348;2024-01-11T10:29:33;14.70;59.90
65582;DHT22;52231;40.090;18.348;2024-01-11T10:32:03;14.60;59.80
65582;DHT22;52231;40.090;18.348;2024-01-11T10:34:31;14.40;60.10
65582;DHT22;52231;40.090;18.348;2024-01-11T10:36:59;14.40;58.90
65582;DHT22;52231;40.090;18.348;2024-01-11T10:39:28;14.40;58.40
65582;DHT22;52231;40.090;18.348;2024-01-11T10:42:04;14.60;58.30
65582;DHT22;52231;40.090;18.348;2024-01-11T10:44:34;14.70;58.30
65582;DHT22;52231;40.090;18.348;2024-01-11T10:47:04;14.80;57.80
65582;DHT22;52231;40.090;18.348;2024-01-11T10:49:39;14.90;57.10
65582;DHT22;52231;40.090;18.348;2024-01-11T10:55:27;15.50;57.10
65582;DHT22;52231;40.090;18.348;2024-01-11T10:58:21;15.90;56.90
65582;DHT22;52231;40.090;18.348;2024-01-11T11:00:51;16.00;55.30
65582;DHT22;52231;40.090;18.348;2024-01-11T11:03:23;15.90;54.70
65582;DHT22;52231;40.090;18.348;2024-01-11T11:05:57;15.70;55.30
65582;DHT22;52231;40.090;18.348;2024-01-11T11:08:27;15.60;55.40
65582;DHT22;52231;40.090;18.348;2024-01-11T11:10:56;15.40;56.50
65582;DHT22;52231;40.090;18.348;2024-01-11T11:13:26;15.20;56.70
65582;DHT22;52231;40.090;18.348;2024-01-11T11:15:55;14.90;57.60
65582;DHT22;52231;40.090;18.348;2024-01-11T11:18:26;14.80;58.20
65582;DHT22;52231;40.090;18.348;2024-01-11T11:20:55;14.60;58.80
65582;DHT22;52231;40.090;18.348;2024-01-11T11:23:23;14.50;59.30
65582;DHT22;52231;40.090;18.348;2024-01-11T11:25:54;14.60;59.70
65582;DHT22;52231;40.090;18.348;2024-01-11T11:28:23;14.60;59.50
65582;DHT22;52231;40.090;18.348;2024-01-11T11:30:52;14.70;59.60
65582;DHT22;52231;40.090;18.348;2024-01-11T11:33:24;14.80;59.30
65582;DHT22;52231;40.090;18.348;2024-01-11T11:35:54;14.70;59.10
65582;DHT22;52231;40.090;18.348;2024-01-11T11:38:26;14.70;59.90
65582;DHT22;52231;40.090;18.348;2024-01-11T11:40:56;14.70;59.50
65582;DHT22;52231;40.090;18.348;2024-01-11T11:43:27;14.50;59.50
65582;DHT22;52231;40.090;18.348;2024-01-11T11:45:56;14.30;60.30
65582;DHT22;52231;40.090;18.348;2024-01-11T11:51:09;14.20;61.60
65582;DHT22;52231;40.090;18.348;2024-01-11T11:53:38;14.00;62.00
65582;DHT22;52231;40.090;18.348;2024-01-11T11:56:07;14.00;62.70
65582;DHT22;52231;40.090;18.348;2024-01-11T11:58:37;14.10;62.50
65582;DHT22;52231;40.090;18.348;2024-01-11T12:01:07;14.20;62.70
65582;DHT22;52231;40.090;18.348;2024-01-11T12:03:41;14.30;62.60
65582;DHT22;52231;40.090;18.348;2024-01-11T12:06:09;14.40;62.20
65582;DHT22;52231;40.090;18.348;2024-01-11T12:08:43;14.40;62.10
65582;DHT22;52231;40.090;18.348;2024-01-11T12:11:19;14.30;61.50
65582;DHT22;52231;40.090;18.348;2024-01-11T12:13:48;14.30;61.80
65582;DHT22;52231;40.090;18.348;2024-01-11T12:16:17;14.30;62.60
65582;DHT22;52231;40.090;18.348;2024-01-11T12:18:45;14.30;62.10
65582;DHT22;52231;40.090;18.348;2024-01-11T12:21:14;14.30;62.00
65582;DHT22;52231;40.090;18.348;2024-01-11T12:23:43;14.70;62.30
65582;DHT22;52231;40.090;18.348;2024-01-11T12:26:12;14.80;61.30
65582;DHT22;52231;40.090;18.348;2024-01-11T12:28:42;15.10;61.20
65582;DHT22;52231;40.090;18.348;2024-01-11T12:31:12;15.30;60.20
65582;DHT22;52231;40.090;18.348;2024-01-11T12:33:40;15.50;59.60
65582;DHT22;52231;40.090;18.348;2024-01-11T12:36:09;15.80;59.90
65582;DHT22;52231;40.090;18.348;2024-01-11T12:38:38;16.00;58.40
65582;DHT22;52231;40.090;18.348;2024-01-11T12:41:15;16.00;57.90
65582;DHT22;52231;40.090;18.348;2024-01-11T12:43:44;15.80;57.40
65582;DHT22;52231;40.090;18.348;2024-01-11T12:46:12;15.70;57.80
65582;DHT22;52231;40.090;18.348;2024-01-11T12:48:41;15.60;58.50
65582;DHT22;52231;40.090;18.348;2024-01-11T12:51:09;15.40;59.20
65582;DHT22;52231;40.090;18.348;2024-01-11T12:53:40;15.30;59.80
65582;DHT22;52231;40.090;18.348;2024-01-11T12:56:08;15.10;60.20
65582;DHT22;52231;40.090;18.348;2024-01-11T12:58:39;14.80;60.90
65582;DHT22;52231;40.090;18.348;2024-01-11T13:01:07;14.60;61.50
65582;DHT22;52231;40.090;18.348;2024-01-11T13:03:37;14.40;62.10
65582;DHT22;52231;40.090;18.348;2024-01-11T13:06:05;14.20;62.40
65582;DHT22;52231;40.090;18.348;2024-01-11T13:08:34;14.00;62.40
65582;DHT22;52231;40.090;18.348;2024-01-11T13:11:05;13.90;63.50
65582;DHT22;52231;40.090;18.348;2024-01-11T13:13:35;13.90;64.40
65582;DHT22;52231;40.090;18.348;2024-01-11T13:16:04;13.80;64.90
65582;DHT22;52231;40.090;18.348;2024-01-11T13:18:39;13.60;65.00
65582;DHT22;52231;40.090;18.348;2024-01-11T13:21:07;13.50;65.20
65582;DHT22;52231;40.090;18.348;2024-01-11T13:23:35;13.50;65.70
65582;DHT22;52231;40.090;18.348;2024-01-11T13:26:06;13.60;65.80
65582;DHT22;52231;40.090;18.348;2024-01-11T13:28:34;13.60;66.10
65582;DHT22;52231;40.090;18.348;2024-01-11T13:31:02;13.60;66.10
65582;DHT22;52231;40.090;18.348;2024-01-11T13:33:31;13.50;65.90
65582;DHT22;52231;40.090;18.348;2024-01-11T13:35:59;13.50;66.00
65582;DHT22;52231;40.090;18.348;2024-01-11T13:38:28;13.50;66.60
65582;DHT22;52231;40.090;18.348;2024-01-11T13:40:56;13.50;66.80
65582;DHT22;52231;40.090;18.348;2024-01-11T13:43:24;13.50;66.80
65582;DHT22;52231;40.090;18.348;2024-01-11T13:45:54;13.40;66.70
65582;DHT22;52231;40.090;18.348;2024-01-11T13:48:41;13.30;67.10
65582;DHT22;52231;40.090;18.348;2024-01-11T13:51:09;13.30;67.70
65582;DHT22;52231;40.090;18.348;2024-01-11T13:53:41;13.20;67.90
65582;DHT22;52231;40.090;18.348;2024-01-11T13:56:09;13.00;68.40
65582;DHT22;52231;40.090;18.348;2024-01-11T13:58:40;12.90;68.40
65582;DHT22;52231;40.090;18.348;2024-01-11T14:01:09;12.80;68.10
65582;DHT22;52231;40.090;18.348;2024-01-11T14:03:37;12.80;68.30
65582;DHT22;52231;40.090;18.348;2024-01-11T14:06:06;12.80;68.80
65582;DHT22;52231;40.090;18.348;2024-01-11T14:08:34;12.80;68.70
65582;DHT22;52231;40.090;18.348;2024-01-11T14:11:03;12.80;68.90
65582;DHT22;52231;40.090;18.348;2024-01-11T14:13:32;12.70;68.60
65582;DHT22;52231;40.090;18.348;2024-01-11T14:16:00;12.60;68.90
65582;DHT22;52231;40.090;18.348;2024-01-11T14:18:28;12.50;69.00
65582;DHT22;52231;40.090;18.348;2024-01-11T14:20:56;12.40;69.10
65582;DHT22;52231;40.090;18.348;2024-01-11T14:23:24;12.30;69.20
65582;DHT22;52231;40.090;18.348;2024-01-11T14:25:56;12.30;69.40
65582;DHT22;52231;40.090;18.348;2024-01-11T14:28:24;12.30;69.80
65582;DHT22;52231;40.090;18.348;2024-01-11T14:30:53;12.30;69.70
65582;DHT22;52231;40.090;18.348;2024-01-11T14:33:22;12.20;69.50
65582;DHT22;52231;40.090;18.348;2024-01-11T14:35:50;12.10;69.90
65582;DHT22;52231;40.090;18.348;2024-01-11T14:38:18;12.10;70.10
65582;DHT22;52231;40.090;18.348;2024-01-11T14:40:46;12.00;70.40
65582;DHT22;52231;40.090;18.348;2024-01-11T14:43:15;12.00;70.60
65582;DHT22;52231;40.090;18.348;2024-01-11T14:45:43;12.00;70.90
65582;DHT22;52231;40.090;18.348;2024-01-11T14:48:12;11.90;70.70
65582;DHT22;52231;40.090;18.348;2024-01-11T14:50:40;11.80;70.90
65582;DHT22;52231;40.090;18.348;2024-01-11T14:53:09;11.80;71.20
65582;DHT22;52231;40.090;18.348;2024-01-11T14:55:37;11.80;71.40
65582;DHT22;52231;40.090;18.348;2024-01-11T14:58:05;11.70;71.70
65582;DHT22;52231;40.090;18.348;2024-01-11T15:00:33;11.60;72.00
65582;DHT22;52231;40.090;18.348;2024-01-11T15:03:02;11.50;72.30
65582;DHT22;52231;40.090;18.348;2024-01-11T15:05:30;11.50;72.50
65582;DHT22;52231;40.090;18.348;2024-01-11T15:07:59;11.40;72.70
65582;DHT22;52231;40.090;18.348;2024-01-11T15:10:28;11.30;73.00
65582;DHT22;52231;40.090;18.348;2024-01-11T15:12:56;11.30;73.30
65582;DHT22;52231;40.090;18.348;2024-01-11T15:15:24;11.30;73.50
65582;DHT22;52231;40.090;18.348;2024-01-11T15:17:53;11.20;73.90
65582;DHT22;52231;40.090;18.348;2024-01-11T15:20:22;11.10;74.00
65582;DHT22;52231;40.090;18.348;2024-01-11T15:22:51;11.10;74.00
65582;DHT22;52231;40.090;18.348;2024-01-11T15:25:19;11.00;74.10
65582;DHT22;52231;40.090;18.348;2024-01-11T15:27:48;10.90;74.30
65582;DHT22;52231;40.090;18.348;2024-01-11T15:30:16;10.90;74.50
65582;DHT22;52231;40.090;18.348;2024-01-11T15:32:45;10.80;74.70
65582;DHT22;52231;40.090;18.348;2024-01-11T15:35:13;10.80;75.00
65582;DHT22;52231;40.090;18.348;2024-01-11T15:37:41;10.80;75.20
65582;DHT22;52231;40.090;18.348;2024-01-11T15:40:10;10.80;75.30
65582;DHT22;52231;40.090;18.348;2024-01-11T15:42:39;10.70;75.40
65582;DHT22;52231;40.090;18.348;2024-01-11T15:45:08;10.70;75.60
65582;DHT22;52231;40.090;18.348;2024-01-11T15:47:36;10.60;75.80
65582;DHT22;52231;40.090;18.348;2024-01-11T15:50:05;10.60;76.00